Time;durP1;ratioP1;P1;durP2;ratioP2;P2;SDS_P1;SDS_P2;PMS_P1;PMS_P2;Temp;Humidity;BMP_temperature;BMP_pressure;BME280_temperature;BME280_humidity;BME280_pressure;Samples;Min_cycle;Max_cycle;Signal;HPM_P1;HPM_P2
2021/12/24 00:02:24;;;;;;;73.93;43.53;;;;;;;6.46;100.00;100400.25;5081270;28;20028;-83
2021/12/24 00:04:50;;;;;;;75.05;44.40;;;;;;;6.47;100.00;100412.53;5072158;28;20040;-82
2021/12/24 00:07:16;;;;;;;72.60;45.45;;;;;;;6.53;100.00;100417.47;5073245;28;20016;-82
2021/12/24 00:09:41;;;;;;;73.78;45.13;;;;;;;6.51;100.00;100427.28;5083689;28;20031;-81
2021/12/24 00:12:13;;;;;;;69.40;39.10;;;;;;;6.58;100.00;100407.53;5092007;28;20023;-83
2021/12/24 00:14:46;;;;;;;67.90;42.03;;;;;;;6.53;100.00;100410.44;5091464;28;20038;-78
2021/12/24 00:17:15;;;;;;;70.15;44.28;;;;;;;6.52;100.00;100416.63;5076243;28;20051;-81
2021/12/24 00:19:49;;;;;;;72.53;43.63;;;;;;;6.47;100.00;100408.13;5092343;28;20107;-79
2021/12/24 00:35:54;;;;;;;53.95;39.00;;;;;;;6.79;100.00;100400.22;5072355;28;20065;-79
2021/12/24 00:38:23;;;;;;;64.60;42.53;;;;;;;6.68;100.00;100392.03;5038087;28;20029;-80
2021/12/24 00:40:48;;;;;;;65.60;44.10;;;;;;;6.64;100.00;100387.84;5037835;28;20040;-79
2021/12/24 00:43:17;;;;;;;67.88;43.13;;;;;;;6.57;100.00;100379.41;5072323;28;20040;-79
2021/12/24 00:45:46;;;;;;;65.35;42.45;;;;;;;6.71;100.00;100392.72;5072036;28;20403;-80
2021/12/24 00:48:14;;;;;;;66.65;41.65;;;;;;;6.67;100.00;100391.16;5071661;28;20009;-81
2021/12/24 00:50:56;;;;;;;60.40;40.55;;;;;;;6.75;100.00;100382.84;5072147;28;20032;-78
2021/12/24 00:56:16;;;;;;;57.40;39.92;;;;;;;6.81;100.00;100390.41;5071968;28;20032;-81
2021/12/24 00:58:43;;;;;;;;;;;;;;;6.77;100.00;100383.63;5071500;28;20494;-80
2021/12/24 01:01:12;;;;;;;56.75;40.38;;;;;;;6.76;100.00;100382.72;5053754;28;19923;-81
2021/12/24 01:03:37;;;;;;;62.03;40.67;;;;;;;6.73;100.00;100376.78;5054180;28;20629;-81
2021/12/24 01:06:03;;;;;;;63.22;38.95;;;;;;;6.74;100.00;100373.22;5071957;28;20028;-82
2021/12/24 01:08:29;;;;;;;69.30;44.90;;;;;;;6.75;100.00;100367.81;5060193;28;20017;-79
2021/12/24 01:10:59;;;;;;;63.10;43.53;;;;;;;6.87;100.00;100378.66;5037241;28;20032;-81
2021/12/24 01:13:30;;;;;;;64.63;42.58;;;;;;;6.60;100.00;100323.75;5053759;28;20345;-82
2021/12/24 01:18:45;;;;;;;76.05;48.45;;;;;;;6.82;100.00;100357.75;5071615;28;20036;-78
2021/12/24 01:26:07;;;;;;;81.70;52.80;;;;;;;6.84;100.00;100361.19;5072073;28;20032;-78
2021/12/24 01:44:59;;;;;;;98.88;57.53;;;;;;;7.15;100.00;100372.69;5057133;28;20090;-82
2021/12/24 01:47:24;;;;;;;109.00;63.63;;;;;;;7.07;100.00;100353.75;5071366;28;20060;-80
2021/12/24 01:49:50;;;;;;;115.13;64.80;;;;;;;7.15;100.00;100373.53;5053658;28;20097;-80
2021/12/24 01:52:16;;;;;;;109.88;64.32;;;;;;;7.20;100.00;100371.47;5053592;28;20021;-79
2021/12/24 01:54:43;;;;;;;115.78;65.70;;;;;;;7.04;100.00;100353.00;5053253;28;20451;-80
2021/12/24 01:57:11;;;;;;;106.72;65.18;;;;;;;7.15;100.00;100359.47;5053521;28;20021;-81
2021/12/24 01:59:38;;;;;;;111.20;65.03;;;;;;;7.23;100.00;100373.94;5070951;28;20090;-80
2021/12/24 02:02:06;;;;;;;106.85;63.38;;;;;;;7.22;100.00;100368.75;5071488;28;20021;-81
2021/12/24 02:04:31;;;;;;;107.72;63.95;;;;;;;7.19;100.00;100368.94;5017833;28;20025;-78
2021/12/24 02:06:57;;;;;;;99.40;58.50;;;;;;;7.29;100.00;100370.09;5041887;28;20446;-81
2021/12/24 02:09:25;;;;;;;101.93;62.05;;;;;;;7.19;100.00;100355.72;5053335;28;20020;-78
2021/12/24 02:11:51;;;;;;;98.00;59.97;;;;;;;7.09;100.00;100336.00;5053833;28;20029;-78
2021/12/24 02:14:21;;;;;;;94.63;59.05;;;;;;;7.31;100.00;100376.16;5070611;28;20063;-81
2021/12/24 02:30:10;;;;;;;92.90;58.30;;;;;;;7.40;100.00;100362.41;5071165;28;20032;-78
2021/12/24 02:32:41;;;;;;;95.03;59.33;;;;;;;7.35;100.00;100353.03;5079760;28;20056;-81
2021/12/24 02:35:07;;;;;;;101.97;60.67;;;;;;;7.28;100.00;100339.31;5089921;28;20016;-80
2021/12/24 02:37:35;;;;;;;105.53;62.63;;;;;;;7.44;100.00;100360.44;5091030;28;20390;-81
2021/12/24 02:40:00;;;;;;;105.47;62.42;;;;;;;7.48;100.00;100364.63;5089254;28;20134;-81
2021/12/24 02:42:26;;;;;;;115.70;67.40;;;;;;;7.39;100.00;100336.91;5091404;28;20463;-81
2021/12/24 02:44:54;;;;;;;116.30;67.60;;;;;;;7.47;100.00;100353.19;5072668;28;20036;-78
2021/12/24 02:55:05;;;;;;;131.00;71.85;;;;;;;7.51;100.00;100333.53;5094927;28;20054;-78
2021/12/24 02:57:32;;;;;;;128.07;75.25;;;;;;;7.62;100.00;100345.28;5094213;28;20112;-81
2021/12/24 03:00:00;;;;;;;132.50;71.60;;;;;;;7.62;100.00;100340.00;5093307;28;20020;-80
2021/12/24 03:02:27;;;;;;;136.15;76.28;;;;;;;7.59;100.00;100350.75;5094383;28;20073;-79
2021/12/24 03:04:53;;;;;;;143.32;77.50;;;;;;;7.53;100.00;100330.81;5094603;28;20024;-80
2021/12/24 03:07:21;;;;;;;124.47;68.28;;;;;;;7.69;100.00;100343.97;5093840;28;20402;-82
2021/12/24 03:09:46;;;;;;;136.35;75.43;;;;;;;7.58;100.00;100335.81;5093207;28;20421;-80
2021/12/24 03:12:12;;;;;;;144.10;76.57;;;;;;;7.63;100.00;100342.53;5093960;28;20034;-80
2021/12/24 03:14:37;;;;;;;139.35;72.20;;;;;;;7.62;100.00;100327.63;5094235;28;20478;-81
2021/12/24 03:17:09;;;;;;;130.63;75.82;;;;;;;7.68;100.00;100344.94;5075776;28;20067;-82
2021/12/24 03:19:35;;;;;;;140.10;75.13;;;;;;;7.66;100.00;100334.41;5093774;28;20031;-79
2021/12/24 03:22:14;;;;;;;143.38;78.18;;;;;;;7.64;100.00;100336.28;5087156;28;20036;-79
2021/12/24 03:24:39;;;;;;;144.23;76.80;;;;;;;7.63;100.00;100339.06;5093951;28;20034;-80
2021/12/24 03:27:07;;;;;;;151.82;76.38;;;;;;;7.64;100.00;100338.09;5092574;28;20449;-81
2021/12/24 03:29:33;;;;;;;148.02;76.97;;;;;;;7.70;100.00;100351.81;5081331;28;20028;-79
2021/12/24 03:31:59;;;;;;;148.98;75.05;;;;;;;7.58;100.00;100338.47;5089316;28;20043;-81
2021/12/24 03:34:25;;;;;;;144.20;81.35;;;;;;;7.69;100.00;100360.72;5093575;28;20463;-80
2021/12/24 03:36:53;;;;;;;140.55;77.13;;;;;;;7.62;100.00;100351.44;5075682;28;20475;-79
2021/12/24 03:39:20;;;;;;;147.45;77.53;;;;;;;7.74;100.00;100366.59;5091993;28;20088;-81
2021/12/24 03:41:46;;;;;;;142.85;77.65;;;;;;;7.56;100.00;100327.97;5093756;28;20024;-79
2021/12/24 03:44:13;;;;;;;153.30;79.05;;;;;;;7.69;100.00;100357.22;5091892;28;20352;-82
2021/12/24 03:49:32;;;;;;;147.07;78.18;;;;;;;7.74;100.00;100363.09;5093670;28;20028;-83
2021/12/24 03:52:14;;;;;;;146.88;76.68;;;;;;;7.70;100.00;100356.25;5093720;28;20398;-81
2021/12/24 03:54:57;;;;;;;135.23;75.68;;;;;;;7.69;100.00;100357.22;5092333;28;20027;-79
2021/12/24 03:57:35;;;;;;;139.55;73.68;;;;;;;7.66;100.00;100354.75;5092985;28;20368;-82
2021/12/24 04:00:05;;;;;;;131.40;73.07;;;;;;;7.70;100.00;100353.59;5091509;28;20039;-79
2021/12/24 04:02:31;;;;;;;127.50;72.97;;;;;;;7.71;100.00;100357.97;5085572;28;20109;-79
2021/12/24 04:04:56;;;;;;;130.48;72.28;;;;;;;7.79;100.00;100362.81;5091758;28;20074;-82
2021/12/24 04:07:22;;;;;;;125.38;69.32;;;;;;;7.49;100.00;100316.88;5093250;28;20182;-82
2021/12/24 04:10:12;;;;;;;124.88;69.10;;;;;;;7.69;100.00;100347.47;5071246;28;20028;-81
2021/12/24 04:12:40;;;;;;;121.60;63.05;;;;;;;7.61;100.00;100346.22;5091815;28;20075;-79
2021/12/24 04:15:06;;;;;;;115.35;63.22;;;;;;;7.74;100.00;100357.81;5092860;28;20495;-78
2021/12/24 04:17:37;;;;;;;112.60;60.97;;;;;;;7.78;100.00;100367.25;5091645;28;20028;-83
2021/12/24 04:25:25;;;;;;;90.25;52.70;;;;;;;7.81;100.00;100368.88;5093078;28;20070;-81
2021/12/24 04:27:53;;;;;;;79.57;45.42;;;;;;;7.77;100.00;100352.31;5093235;28;20464;-81
2021/12/24 04:30:25;;;;;;;81.90;45.58;;;;;;;7.74;100.00;100353.34;5092564;28;20532;-82
2021/12/24 04:33:00;;;;;;;77.43;43.58;;;;;;;7.77;100.00;100357.63;5092573;28;20105;-82
2021/12/24 04:51:42;;;;;;;61.45;36.25;;;;;;;7.84;100.00;100361.59;5092355;28;20104;-78
2021/12/24 05:02:24;;;;;;;59.42;32.20;;;;;;;7.88;100.00;100355.19;5079169;28;20078;-79
2021/12/24 05:04:55;;;;;;;61.92;32.95;;;;;;;7.88;100.00;100359.59;5089722;28;20383;-81
2021/12/24 05:10:06;;;;;;;59.35;31.23;;;;;;;7.77;100.00;100348.84;5071413;28;20387;-79
2021/12/24 05:12:34;;;;;;;53.58;31.90;;;;;;;7.86;100.00;100358.88;5084951;28;20114;-81
2021/12/24 05:15:00;;;;;;;56.50;31.88;;;;;;;7.74;100.00;100348.06;5076583;28;20041;-82
2021/12/24 05:17:48;;;;;;;56.47;30.45;;;;;;;7.84;100.00;100369.53;5115444;27;20028;-80
2021/12/24 05:22:57;;;;;;;55.03;28.65;;;;;;;7.76;100.00;100352.41;5076247;28;20046;-78
2021/12/24 05:25:23;;;;;;;46.60;28.85;;;;;;;7.86;100.00;100374.75;5080402;28;20110;-79
2021/12/24 05:27:51;;;;;;;53.97;29.33;;;;;;;7.74;100.00;100358.66;5090317;28;20032;-79
2021/12/24 05:30:18;;;;;;;45.53;27.90;;;;;;;7.85;100.00;100373.03;5074286;28;20371;-81
2021/12/24 05:32:43;;;;;;;48.67;26.88;;;;;;;7.76;100.00;100368.28;5081385;28;20056;-79
2021/12/24 05:35:11;;;;;;;50.92;27.05;;;;;;;7.81;100.00;100380.31;5053684;28;20047;-78
2021/12/24 05:37:36;;;;;;;51.85;26.42;;;;;;;7.82;100.00;100373.22;5091973;28;20039;-81
2021/12/24 05:40:02;;;;;;;49.00;23.30;;;;;;;7.89;100.00;100386.00;5056797;28;20032;-80
2021/12/24 05:42:31;;;;;;;43.75;24.55;;;;;;;7.82;100.00;100379.34;5091826;28;20016;-80
2021/12/24 05:45:03;;;;;;;50.15;24.15;;;;;;;7.72;100.00;100362.31;5070577;28;20040;-81
2021/12/24 05:47:28;;;;;;;40.72;23.15;;;;;;;7.84;100.00;100385.41;5092236;28;20458;-81
2021/12/24 05:49:56;;;;;;;44.80;22.52;;;;;;;7.81;100.00;100390.91;5073229;28;20035;-81
2021/12/24 05:52:21;;;;;;;42.40;21.00;;;;;;;7.82;100.00;100392.59;5092371;28;20066;-78
2021/12/24 05:54:47;;;;;;;44.88;21.52;;;;;;;7.80;100.00;100389.19;5073020;28;20059;-78
2021/12/24 05:57:13;;;;;;;48.35;21.95;;;;;;;7.68;100.00;100366.09;5091324;28;20027;-79
2021/12/24 05:59:41;;;;;;;35.90;21.02;;;;;;;7.71;100.00;100376.50;5073116;28;20107;-79
2021/12/24 06:02:07;;;;;;;45.92;21.30;;;;;;;7.75;100.00;100378.03;5073407;28;20119;-79
2021/12/24 06:04:35;;;;;;;40.63;20.73;;;;;;;7.72;100.00;100380.84;5091587;28;20413;-80
2021/12/24 06:07:00;;;;;;;48.05;21.17;;;;;;;7.80;100.00;100401.59;5091367;28;20020;-79
2021/12/24 06:09:26;;;;;;;40.60;20.40;;;;;;;7.74;100.00;100395.72;5124432;27;20360;-83
2021/12/24 06:11:54;;;;;;;41.85;19.50;;;;;;;7.63;100.00;100362.88;5091165;28;20032;-81
2021/12/24 06:14:19;;;;;;;38.20;18.33;;;;;;;7.84;100.00;100385.41;5091335;28;20036;-82
2021/12/24 06:16:58;;;;;;;39.22;19.55;;;;;;;7.68;100.00;100361.66;5091482;28;20016;-78
2021/12/24 06:19:26;;;;;;;41.30;18.85;;;;;;;7.83;100.00;100390.81;5090522;28;20119;-82
2021/12/24 06:21:55;;;;;;;43.38;18.17;;;;;;;7.83;100.00;100389.03;5095332;28;20016;-81
2021/12/24 06:24:23;;;;;;;47.63;19.95;;;;;;;7.76;100.00;100386.81;5076992;28;20031;-81
2021/12/24 06:26:51;;;;;;;38.83;18.30;;;;;;;7.76;100.00;100385.00;5094602;28;20019;-81
2021/12/24 06:29:17;;;;;;;42.63;17.65;;;;;;;7.84;100.00;100396.00;5093024;28;20027;-79
2021/12/24 06:31:44;;;;;;;31.50;17.20;;;;;;;7.74;100.00;100365.75;5094813;28;20035;-78
2021/12/24 06:34:09;;;;;;;36.83;18.30;;;;;;;7.73;100.00;100372.84;5094697;28;20487;-79
2021/12/24 06:36:39;;;;;;;32.22;16.38;;;;;;;7.72;100.00;100370.25;5094779;28;20038;-80
2021/12/24 06:39:07;;;;;;;32.75;17.42;;;;;;;7.82;100.00;100394.38;5093727;28;20044;-82
2021/12/24 06:41:33;;;;;;;37.88;16.67;;;;;;;7.72;100.00;100367.63;5076161;28;20039;-79
2021/12/24 06:43:59;;;;;;;38.22;16.70;;;;;;;7.83;100.00;100388.16;5094814;28;20081;-78
2021/12/24 06:46:25;;;;;;;39.53;17.70;;;;;;;7.69;100.00;100366.00;5094747;28;20069;-82
2021/12/24 06:48:56;;;;;;;39.08;18.38;;;;;;;7.83;100.00;100396.13;5076719;28;20027;-78
2021/12/24 06:51:25;;;;;;;36.50;18.65;;;;;;;7.77;100.00;100392.03;5094788;28;20042;-81
2021/12/24 06:53:50;;;;;;;34.08;17.55;;;;;;;7.83;100.00;100402.25;5094201;28;20032;-78
2021/12/24 06:56:18;;;;;;;38.35;18.65;;;;;;;7.81;100.00;100395.34;5094982;28;20020;-78
2021/12/24 06:58:44;;;;;;;39.55;18.42;;;;;;;7.82;100.00;100394.38;5076048;28;20024;-78
2021/12/24 07:01:11;;;;;;;37.72;19.83;;;;;;;7.80;100.00;100394.50;5094263;28;20058;-78
2021/12/24 07:03:39;;;;;;;46.45;20.88;;;;;;;7.80;100.00;100391.00;5092990;28;20039;-82
2021/12/24 07:06:06;;;;;;;45.75;22.35;;;;;;;7.75;100.00;100380.66;5076458;28;20016;-82
2021/12/24 07:08:32;;;;;;;41.88;20.95;;;;;;;7.82;100.00;100397.88;5092772;28;20406;-82
2021/12/24 07:10:58;;;;;;;44.33;20.88;;;;;;;7.81;100.00;100395.34;5076044;28;20063;-78
2021/12/24 07:13:24;;;;;;;41.33;22.10;;;;;;;7.80;100.00;100386.56;5094038;28;20024;-82
2021/12/24 07:15:49;;;;;;;48.92;23.02;;;;;;;7.73;100.00;100364.91;5094141;28;20385;-81
2021/12/24 07:18:17;;;;;;;40.13;23.13;;;;;;;7.82;100.00;100382.00;5092401;28;20020;-78
2021/12/24 07:20:43;;;;;;;42.75;22.80;;;;;;;7.82;100.00;100386.44;5094299;28;20040;-79
2021/12/24 07:23:08;;;;;;;40.80;22.27;;;;;;;7.82;99.73;100374.06;5072393;28;20050;-78
2021/12/24 07:25:34;;;;;;;46.20;23.98;;;;;;;7.82;100.00;100384.66;5093920;28;20371;-80
2021/12/24 07:28:00;;;;;;;47.67;24.08;;;;;;;7.68;100.00;100364.31;5092870;28;20028;-80
2021/12/24 07:30:29;;;;;;;46.08;24.40;;;;;;;7.69;100.00;100375.75;5093657;28;20035;-78
2021/12/24 07:32:57;;;;;;;47.40;25.25;;;;;;;7.71;100.00;100381.81;5092520;28;20051;-79
2021/12/24 07:35:23;;;;;;;47.03;25.77;;;;;;;7.78;100.00;100393.72;5093419;28;20367;-78
2021/12/24 07:37:49;;;;;;;43.90;23.48;;;;;;;7.78;100.00;100388.44;5075513;28;20022;-78
2021/12/24 07:40:16;;;;;;;44.30;25.50;;;;;;;7.76;100.00;100386.81;5093663;28;20059;-79
2021/12/24 07:42:43;;;;;;;44.72;25.08;;;;;;;7.73;100.00;100380.78;5093120;28;20028;-81
2021/12/24 07:45:10;;;;;;;43.67;24.80;;;;;;;7.64;100.00;100381.28;5092306;28;20375;-81
2021/12/24 07:47:40;;;;;;;37.97;25.67;;;;;;;7.72;100.00;100397.59;5093823;28;20527;-77
2021/12/24 07:51:57;;;;;;;54.50;25.63;;;;;;;7.63;100.00;100387.53;5093057;28;20466;-80
2021/12/24 07:53:04;;;;;;;57.50;25.88;;;;;;;7.74;100.00;100416.88;5091912;28;20417;-79
2021/12/24 07:55:32;;;;;;;44.40;24.55;;;;;;;7.72;100.00;100404.69;5093130;28;20469;-79
2021/12/24 07:57:58;;;;;;;51.47;26.13;;;;;;;7.75;100.00;100404.50;5092204;28;20028;-79
2021/12/24 08:00:26;;;;;;;41.75;24.77;;;;;;;7.58;100.00;100360.47;5093346;28;20077;-78
2021/12/24 08:02:53;;;;;;;44.45;24.17;;;;;;;7.74;100.00;100389.56;5092117;28;20036;-82
2021/12/24 08:05:22;;;;;;;45.08;24.38;;;;;;;7.69;100.00;100379.22;5093156;28;20558;-81
2021/12/24 08:07:48;;;;;;;47.03;23.70;;;;;;;7.71;100.00;100387.94;5074236;28;20231;-79
2021/12/24 08:10:15;;;;;;;46.63;23.55;;;;;;;7.69;100.00;100378.38;5091679;28;20016;-77
2021/12/24 08:12:40;;;;;;;41.03;23.35;;;;;;;7.65;99.65;100376.88;5093366;28;20023;-80
2021/12/24 08:15:07;;;;;;;43.85;22.75;;;;;;;7.65;100.00;100382.16;5092793;28;20062;-78
2021/12/24 08:17:33;;;;;;;44.75;24.13;;;;;;;7.56;99.98;100378.25;5074566;28;20497;-78
2021/12/24 08:20:03;;;;;;;45.72;22.38;;;;;;;7.69;99.18;100394.28;5092676;28;20544;-80
2021/12/24 08:22:29;;;;;;;48.53;23.13;;;;;;;7.59;99.45;100375.44;5092270;28;20020;-80
2021/12/24 08:24:54;;;;;;;45.22;22.65;;;;;;;7.60;99.66;100397.44;5054230;28;20036;-76
2021/12/24 08:27:21;;;;;;;42.55;21.73;;;;;;;7.51;99.80;100393.53;5072587;28;20024;-78
2021/12/24 08:29:47;;;;;;;39.55;21.67;;;;;;;7.72;98.30;100404.69;5082295;28;20035;-79
2021/12/24 08:32:12;;;;;;;42.25;19.25;;;;;;;7.70;98.91;100414.50;5074148;28;20550;-77
2021/12/24 08:34:39;;;;;;;44.97;21.80;;;;;;;7.64;99.61;100398.97;5090853;28;20097;-78
2021/12/24 08:37:05;;;;;;;45.28;22.20;;;;;;;7.65;99.56;100390.09;5074235;28;20032;-77
2021/12/24 08:39:31;;;;;;;44.60;21.65;;;;;;;7.70;99.31;100380.94;5074135;28;20035;-81
2021/12/24 08:41:57;;;;;;;41.65;21.80;;;;;;;7.68;99.41;100382.84;5092795;28;20028;-77
2021/12/24 08:44:28;;;;;;;43.72;22.73;;;;;;;7.59;99.61;100363.97;5092227;28;20451;-81
2021/12/24 08:46:54;;;;;;;40.67;21.98;;;;;;;7.60;99.82;100366.53;5092609;28;20413;-78
2021/12/24 08:49:20;;;;;;;49.58;24.83;;;;;;;7.71;100.00;100381.81;5069568;28;20493;-79
2021/12/24 08:51:48;;;;;;;53.30;26.08;;;;;;;7.80;99.10;100383.06;5097673;28;20106;-81
2021/12/24 08:54:13;;;;;;;52.97;26.67;;;;;;;7.79;99.08;100389.28;5084738;28;20020;-82
2021/12/24 08:56:41;;;;;;;50.22;27.33;;;;;;;7.78;99.55;100379.63;5085075;28;20097;-79
2021/12/24 08:59:06;;;;;;;49.35;27.65;;;;;;;7.85;99.33;100378.31;5079216;28;20470;-81
2021/12/24 09:01:32;;;;;;;48.50;25.95;;;;;;;7.86;98.95;100380.06;5086054;28;20031;-82
2021/12/24 09:03:58;;;;;;;54.20;28.63;;;;;;;7.83;98.66;100367.00;5084124;28;20036;-80
2021/12/24 09:06:24;;;;;;;46.70;27.05;;;;;;;7.83;98.93;100369.66;5091765;28;20016;-80
2021/12/24 09:08:50;;;;;;;53.58;28.70;;;;;;;7.94;99.00;100383.94;5084702;28;20020;-78
2021/12/24 09:11:16;;;;;;;55.67;28.85;;;;;;;7.96;99.31;100375.91;5072892;28;20027;-79
2021/12/24 09:13:41;;;;;;;55.75;30.58;;;;;;;7.99;99.13;100380.16;5086077;28;20070;-78
2021/12/24 09:16:07;;;;;;;61.22;30.15;;;;;;;7.96;99.11;100365.31;5071043;28;20028;-80
2021/12/24 09:18:33;;;;;;;57.72;30.17;;;;;;;7.94;98.58;100357.47;5067866;28;20360;-79
2021/12/24 09:21:02;;;;;;;60.97;30.23;;;;;;;7.99;98.49;100357.16;5089710;28;20035;-79
2021/12/24 09:23:27;;;;;;;58.08;29.75;;;;;;;8.04;98.57;100362.22;5066963;28;20028;-80
2021/12/24 09:25:53;;;;;;;52.17;29.80;;;;;;;8.10;98.08;100378.56;5098296;28;20025;-80
2021/12/24 09:28:18;;;;;;;49.90;28.88;;;;;;;8.09;98.19;100366.28;5072752;28;20470;-81
2021/12/24 09:30:44;;;;;;;68.60;28.90;;;;;;;8.09;97.92;100376.00;5091374;28;20081;-79
2021/12/24 09:33:12;;;;;;;55.10;28.80;;;;;;;8.09;98.06;100373.34;5073324;28;20063;-82
2021/12/24 09:35:39;;;;;;;52.13;28.92;;;;;;;8.03;97.85;100363.13;5067017;28;20020;-81
2021/12/24 09:38:04;;;;;;;53.92;27.88;;;;;;;8.03;97.31;100368.44;5084027;28;20402;-80
2021/12/24 09:40:33;;;;;;;60.05;28.33;;;;;;;8.05;97.27;100374.50;5121980;27;20032;-79
2021/12/24 09:43:01;;;;;;;56.33;28.35;;;;;;;8.12;97.51;100375.84;5073791;28;20032;-81
2021/12/24 09:45:27;;;;;;;54.70;28.33;;;;;;;8.11;97.65;100380.25;5088495;28;20028;-79
2021/12/24 09:47:53;;;;;;;54.60;27.85;;;;;;;8.12;97.45;100382.00;5091410;28;20029;-82
2021/12/24 09:50:22;;;;;;;56.53;30.08;;;;;;;7.99;97.74;100359.81;5090804;28;20486;-80
2021/12/24 09:52:49;;;;;;;62.28;29.30;;;;;;;8.12;97.67;100375.84;5089773;28;20089;-78
2021/12/24 09:55:20;;;;;;;58.53;31.83;;;;;;;8.11;97.40;100368.81;5070387;28;20376;-78
2021/12/24 09:57:47;;;;;;;62.22;31.98;;;;;;;8.13;97.78;100374.88;5089833;28;20039;-79
2021/12/24 10:00:16;;;;;;;63.28;30.80;;;;;;;8.12;97.69;100378.50;5091873;28;20024;-82
2021/12/24 10:02:48;;;;;;;57.25;32.22;;;;;;;8.13;97.55;100364.28;5090040;28;20028;-77
2021/12/24 10:05:22;;;;;;;68.25;33.40;;;;;;;8.13;97.90;100369.59;5091943;28;20062;-77
2021/12/24 10:07:48;;;;;;;64.55;32.58;;;;;;;8.07;97.80;100357.56;5091232;28;20031;-81
2021/12/24 10:10:15;;;;;;;53.25;32.47;;;;;;;7.99;97.68;100349.22;5091827;28;20020;-80
2021/12/24 10:12:40;;;;;;;67.80;37.33;;;;;;;7.86;97.75;100337.69;5073834;28;20494;-78
2021/12/24 10:15:08;;;;;;;64.28;35.05;;;;;;;7.99;97.77;100353.69;5090948;28;20044;-80
2021/12/24 10:17:38;;;;;;;64.82;35.78;;;;;;;7.92;98.23;100342.63;5092588;28;20032;-79
2021/12/24 10:20:15;;;;;;;65.85;34.83;;;;;;;7.94;97.91;100338.94;5057509;28;20050;-79
2021/12/24 10:22:47;;;;;;;63.05;35.75;;;;;;;8.11;97.92;100364.38;5074441;28;20024;-78
2021/12/24 10:25:16;;;;;;;69.05;36.67;;;;;;;8.15;97.66;100365.91;5092647;28;20028;-80
2021/12/24 10:27:43;;;;;;;65.30;37.13;;;;;;;8.08;97.55;100355.75;5074236;28;20024;-80
2021/12/24 10:30:21;;;;;;;61.28;34.25;;;;;;;8.08;97.26;100347.81;5090859;28;20367;-81
2021/12/24 10:32:47;;;;;;;64.80;34.75;;;;;;;8.06;97.51;100341.75;5092755;28;20042;-79
2021/12/24 10:35:22;;;;;;;58.95;32.67;;;;;;;8.24;97.11;100351.25;5093499;28;20028;-79
2021/12/24 10:38:26;;;;;;;71.60;35.75;;;;;;;8.21;97.18;100348.78;5092595;28;20074;-79
2021/12/24 10:40:58;;;;;;;65.97;35.83;;;;;;;8.07;97.37;100335.53;5082176;28;20119;-80
2021/12/24 10:43:29;;;;;;;73.80;37.90;;;;;;;8.10;97.74;100336.19;5092731;28;20099;-82
2021/12/24 10:46:22;;;;;;;72.65;40.80;;;;;;;8.28;97.64;100357.22;5072678;28;20012;-82
2021/12/24 10:49:16;;;;;;;87.90;42.88;;;;;;;8.32;97.59;100353.41;5061372;28;20509;-83
2021/12/24 10:52:12;;;;;;;72.68;42.28;;;;;;;8.33;97.20;100353.31;5079515;28;20024;-77
2021/12/24 10:54:56;;;;;;;78.80;44.95;;;;;;;8.40;97.09;100353.81;5080306;28;20020;-80
2021/12/24 10:57:24;;;;;;;80.53;45.28;;;;;;;8.46;96.07;100349.94;5090310;28;20027;-79
2021/12/24 10:59:54;;;;;;;83.25;45.85;;;;;;;8.40;97.45;100336.13;5072227;28;20048;-82
2021/12/24 11:02:20;;;;;;;82.53;49.33;;;;;;;8.40;96.27;100324.69;5061745;28;20035;-81
2021/12/24 11:04:46;;;;;;;94.82;47.83;;;;;;;8.48;96.62;100342.75;5065944;28;21709;-82
2021/12/24 11:07:31;;;;;;;87.18;51.50;;;;;;;8.48;97.12;100348.91;5066186;28;20031;-80
2021/12/24 11:10:15;;;;;;;85.13;48.63;;;;;;;8.47;96.65;100341.91;5048118;28;20036;-78
2021/12/24 11:12:47;;;;;;;86.60;47.22;;;;;;;8.42;96.73;100341.34;5065789;28;20085;-79
2021/12/24 11:15:29;;;;;;;84.72;48.85;;;;;;;8.44;96.22;100331.47;5065789;28;20082;-77
2021/12/24 11:17:58;;;;;;;98.20;52.85;;;;;;;8.34;96.59;100317.09;5048759;28;20039;-78
2021/12/24 11:20:26;;;;;;;85.85;51.80;;;;;;;8.45;96.37;100321.75;5068172;28;20046;-79
2021/12/24 11:22:53;;;;;;;92.03;51.08;;;;;;;8.62;96.07;100337.44;5047739;28;20040;-80
2021/12/24 11:25:21;;;;;;;85.93;50.70;;;;;;;8.60;96.47;100348.13;5049330;28;20553;-81
2021/12/24 11:27:47;;;;;;;85.75;49.20;;;;;;;8.61;95.86;100343.69;5049570;28;20028;-79
2021/12/24 11:30:19;;;;;;;88.05;51.58;;;;;;;8.48;95.84;100321.56;5067545;28;20111;-80
2021/12/24 11:32:45;;;;;;;85.25;47.50;;;;;;;8.48;95.72;100317.09;5064604;28;20061;-76
2021/12/24 11:35:14;;;;;;;82.90;49.40;;;;;;;8.43;96.24;100328.94;5028317;28;20028;-77
2021/12/24 11:37:45;;;;;;;81.38;48.58;;;;;;;8.57;96.07;100350.97;5047300;28;20184;-77
2021/12/24 11:40:14;;;;;;;83.68;48.83;;;;;;;8.46;95.85;100332.25;5045219;28;20032;-81
2021/12/24 11:42:42;;;;;;;76.47;46.33;;;;;;;8.56;95.89;100349.28;5027469;28;20067;-81
2021/12/24 11:45:08;;;;;;;77.97;47.35;;;;;;;8.40;95.51;100330.81;5045911;28;20025;-79
2021/12/24 11:47:34;;;;;;;80.53;45.58;;;;;;;8.55;95.93;100355.50;5045804;28;20058;-81
2021/12/24 11:49:59;;;;;;;81.57;45.97;;;;;;;8.55;95.96;100358.16;5045474;28;20038;-81
2021/12/24 11:52:27;;;;;;;77.13;43.90;;;;;;;8.43;95.37;100342.19;5026320;28;20035;-78
2021/12/24 11:54:59;;;;;;;78.57;45.70;;;;;;;8.49;95.83;100350.59;5027176;28;20021;-78
2021/12/24 11:57:28;;;;;;;81.00;45.00;;;;;;;8.54;95.87;100347.69;5027729;28;20017;-78
2021/12/24 11:59:56;;;;;;;79.50;44.20;;;;;;;8.49;95.98;100333.84;5045024;28;20039;-79
2021/12/24 12:02:47;;;;;;;80.40;45.92;;;;;;;8.53;96.19;100343.31;5050191;28;20033;-76
2021/12/24 12:05:41;;;;;;;77.47;44.60;;;;;;;8.53;96.19;100345.94;5042021;28;20032;-77
2021/12/24 12:08:25;;;;;;;75.32;45.40;;;;;;;8.53;96.47;100344.19;5033438;28;20032;-76
2021/12/24 12:11:21;;;;;;;81.10;44.97;;;;;;;8.51;96.85;100332.81;5056346;28;20097;-77
2021/12/24 12:13:49;;;;;;;75.38;45.85;;;;;;;8.49;96.89;100339.16;5045846;28;20396;-77
2021/12/24 12:16:43;;;;;;;78.30;45.72;;;;;;;8.48;96.72;100332.16;5068220;28;20208;-79
2021/12/24 12:19:30;;;;;;;77.47;44.95;;;;;;;8.48;97.09;100330.34;5055024;28;20391;-77
2021/12/24 12:22:44;;;;;;;80.15;44.38;;;;;;;8.48;96.70;100329.50;5046531;28;20119;-76
2021/12/24 12:25:12;;;;;;;71.47;42.72;;;;;;;8.51;96.43;100339.91;5052691;28;20037;-77
2021/12/24 12:27:39;;;;;;;77.80;45.40;;;;;;;8.44;96.94;100336.78;5054738;28;20039;-77
2021/12/24 12:30:24;;;;;;;74.82;42.47;;;;;;;8.50;97.33;100340.84;5070078;28;20048;-76
2021/12/24 12:33:13;;;;;;;70.35;41.50;;;;;;;8.48;97.31;100335.66;5072345;28;20051;-79
2021/12/24 12:35:52;;;;;;;72.38;40.60;;;;;;;8.58;96.61;100331.47;5090855;28;20112;-79
2021/12/24 12:38:35;;;;;;;69.03;40.92;;;;;;;8.28;97.13;100291.81;5090948;28;20493;-76
2021/12/24 12:41:35;;;;;;;68.75;42.53;;;;;;;8.52;97.44;100323.06;5089834;28;20443;-75
2021/12/24 12:44:10;;;;;;;69.47;40.05;;;;;;;8.50;96.98;100331.13;5090184;28;20447;-78
2021/12/24 12:46:39;;;;;;;79.80;41.38;;;;;;;8.50;97.70;100332.88;5089153;28;20106;-77
2021/12/24 12:49:10;;;;;;;71.47;40.03;;;;;;;8.45;97.82;100321.75;5092108;28;20023;-75
2021/12/24 12:51:54;;;;;;;70.07;39.58;;;;;;;8.56;97.48;100335.16;5092265;28;20047;-75
2021/12/24 12:54:51;;;;;;;71.97;39.40;;;;;;;8.62;97.55;100332.16;5089891;28;20032;-77
2021/12/24 12:57:24;;;;;;;68.97;38.63;;;;;;;8.63;96.75;100326.72;5089564;28;20031;-76
2021/12/24 13:00:08;;;;;;;64.30;38.83;;;;;;;8.66;97.13;100325.69;5089925;28;20020;-75
2021/12/24 13:03:01;;;;;;;67.57;38.13;;;;;;;8.69;96.70;100327.31;5089013;28;20124;-77
2021/12/24 13:05:42;;;;;;;64.43;37.47;;;;;;;8.51;96.96;100293.06;5091878;28;20020;-77